createdAt,value
2019-02-17T00:02:12.520Z,-0.50
2019-02-17T00:04:42.329Z,-0.50
2019-02-17T00:07:12.258Z,-0.50
2019-02-17T00:09:42.176Z,-0.50
2019-02-17T00:12:11.926Z,-0.60
2019-02-17T00:14:41.854Z,-0.70
2019-02-17T00:17:11.661Z,-0.70
2019-02-17T00:19:41.503Z,-0.70
2019-02-17T00:22:11.375Z,-0.70
2019-02-17T00:24:41.190Z,-0.70
2019-02-17T00:27:11.114Z,-0.80
2019-02-17T00:29:40.970Z,-0.80
2019-02-17T00:32:10.831Z,-0.80
2019-02-17T00:34:40.650Z,-0.70
2019-02-17T00:37:10.459Z,-0.70
2019-02-17T00:39:40.265Z,-0.70
2019-02-17T00:42:10.123Z,-0.70
2019-02-17T00:44:39.984Z,-0.60
2019-02-17T00:47:09.795Z,-0.60
2019-02-17T00:49:39.644Z,-0.70
2019-02-17T00:52:09.783Z,-0.80
2019-02-17T00:54:39.586Z,-0.90
2019-02-17T00:57:09.415Z,-0.90
2019-02-17T00:59:39.334Z,-0.70
2019-02-17T01:02:09.179Z,-0.70
2019-02-17T01:04:39.054Z,-0.80
2019-02-17T01:07:08.978Z,-0.90
2019-02-17T01:09:38.884Z,-0.80
2019-02-17T01:12:08.706Z,-0.90
2019-02-17T01:14:38.483Z,-1.00
2019-02-17T01:17:08.247Z,-1.10
2019-02-17T01:19:38.111Z,-1.00
2019-02-17T01:22:07.966Z,-1.00
2019-02-17T01:24:37.759Z,-1.00
2019-02-17T01:27:07.659Z,-1.10
2019-02-17T01:29:37.450Z,-1.20
2019-02-17T01:32:07.298Z,-1.30
2019-02-17T01:34:37.123Z,-1.30
2019-02-17T01:37:06.949Z,-1.30
2019-02-17T01:39:36.743Z,-1.30
2019-02-17T01:42:06.639Z,-1.40
2019-02-17T01:44:36.600Z,-1.30
2019-02-17T01:47:06.447Z,-1.40
2019-02-17T01:49:36.419Z,-1.40
2019-02-17T01:52:06.203Z,-1.40
2019-02-17T01:54:36.102Z,-1.50
2019-02-17T01:57:05.932Z,-1.50
2019-02-17T01:59:35.858Z,-1.60
2019-02-17T02:02:05.627Z,-1.50
2019-02-17T02:04:35.501Z,-1.50
2019-02-17T02:07:05.278Z,-1.50
2019-02-17T02:09:35.211Z,-1.50
2019-02-17T02:12:05.099Z,-1.50
2019-02-17T02:14:35.231Z,-1.50
2019-02-17T02:17:05.248Z,-1.60
2019-02-17T02:19:35.104Z,-1.60
2019-02-17T02:22:04.991Z,-1.70
2019-02-17T02:24:37.386Z,-1.70
2019-02-17T02:27:07.251Z,-1.80
2019-02-17T02:29:41.170Z,-1.80
2019-02-17T02:32:08.758Z,-1.80
2019-02-17T02:34:38.662Z,-1.80
2019-02-17T02:37:08.463Z,-1.80
2019-02-17T02:39:38.228Z,-1.80
2019-02-17T02:42:08.015Z,-1.80
2019-02-17T02:44:37.794Z,-1.80
2019-02-17T02:47:07.708Z,-1.80
2019-02-17T02:49:37.537Z,-1.80
2019-02-17T02:52:07.366Z,-1.80
2019-02-17T02:54:37.156Z,-1.80
2019-02-17T02:57:07.085Z,-1.90
2019-02-17T02:59:36.977Z,-1.90
2019-02-17T03:02:06.863Z,-1.90
2019-02-17T03:04:36.716Z,-1.90
2019-02-17T03:07:09.570Z,-1.90
2019-02-17T03:09:39.374Z,-1.90
2019-02-17T03:12:09.404Z,-1.80
2019-02-17T03:14:39.230Z,-1.90
2019-02-17T03:17:09.123Z,-1.90
2019-02-17T03:19:38.916Z,-1.90
2019-02-17T03:22:08.828Z,-2.00
2019-02-17T03:24:38.581Z,-2.00
2019-02-17T03:27:08.403Z,-2.00
2019-02-17T03:29:38.201Z,-2.00
2019-02-17T03:32:08.019Z,-2.00
2019-02-17T03:34:37.827Z,-2.00
2019-02-17T03:37:07.594Z,-2.00
2019-02-17T03:39:37.408Z,-2.00
2019-02-17T03:42:07.287Z,-2.00
2019-02-17T03:44:37.125Z,-2.00
2019-02-17T03:47:06.963Z,-2.00
2019-02-17T03:49:36.894Z,-2.00
2019-02-17T03:52:06.766Z,-2.10
2019-02-17T03:54:36.594Z,-2.10
2019-02-17T03:57:07.512Z,-2.10
2019-02-17T03:59:37.334Z,-2.10
2019-02-17T04:02:07.202Z,-2.10
2019-02-17T04:04:37.025Z,-2.10
2019-02-17T04:07:06.831Z,-2.10
2019-02-17T04:09:36.872Z,-2.10
2019-02-17T04:12:06.712Z,-2.10
2019-02-17T04:14:36.573Z,-2.00
2019-02-17T04:17:06.403Z,-2.00
2019-02-17T04:19:36.185Z,-2.10
2019-02-17T04:22:06.044Z,-2.10
2019-02-17T04:24:35.823Z,-2.10
2019-02-17T04:27:05.624Z,-2.10
2019-02-17T04:29:35.438Z,-2.10
2019-02-17T04:32:05.283Z,-2.10
2019-02-17T04:34:35.078Z,-2.10
2019-02-17T04:37:04.998Z,-2.10
2019-02-17T04:39:34.802Z,-2.10
2019-02-17T04:42:04.630Z,-2.20
2019-02-17T04:44:34.455Z,-2.20
2019-02-17T04:47:04.278Z,-2.20
2019-02-17T04:49:34.111Z,-2.30
2019-02-17T04:52:03.912Z,-2.30
2019-02-17T04:54:33.764Z,-2.30
2019-02-17T04:57:03.564Z,-2.20
2019-02-17T04:59:33.528Z,-2.10
2019-02-17T05:02:03.390Z,-2.10
2019-02-17T05:04:33.246Z,-2.20
2019-02-17T05:07:03.084Z,-2.20
2019-02-17T05:09:32.959Z,-2.30
2019-02-17T05:12:02.739Z,-2.30
2019-02-17T05:14:32.540Z,-2.40
2019-02-17T05:17:02.392Z,-2.40
2019-02-17T05:19:32.293Z,-2.30
2019-02-17T05:22:02.056Z,-2.30
2019-02-17T05:24:31.909Z,-2.30
2019-02-17T05:27:01.726Z,-2.40
2019-02-17T05:29:31.527Z,-2.20
2019-02-17T05:32:01.317Z,-2.20
2019-02-17T05:34:31.148Z,-2.10
2019-02-17T05:37:01.041Z,-2.10
2019-02-17T05:39:30.908Z,-2.30
2019-02-17T05:42:00.734Z,-2.20
2019-02-17T05:44:30.536Z,-2.30
2019-02-17T05:47:00.338Z,-2.30
2019-02-17T05:49:30.153Z,-2.30
2019-02-17T05:52:00.000Z,-2.30
2019-02-17T05:54:29.802Z,-2.40
2019-02-17T05:56:59.683Z,-2.50
2019-02-17T05:59:29.455Z,-2.50
2019-02-17T06:02:01.472Z,-2.50
2019-02-17T06:04:31.401Z,-2.50
2019-02-17T06:07:01.322Z,-2.50
2019-02-17T06:09:31.134Z,-2.60
2019-02-17T06:12:00.982Z,-2.60
2019-02-17T06:14:30.807Z,-2.60
2019-02-17T06:17:00.586Z,-2.60
2019-02-17T06:19:30.402Z,-2.60
2019-02-17T06:22:00.216Z,-2.60
2019-02-17T06:24:30.104Z,-2.70
2019-02-17T06:26:59.964Z,-2.60
2019-02-17T06:29:29.946Z,-2.60
2019-02-17T06:31:59.757Z,-2.60
2019-02-17T06:34:29.674Z,-2.60
2019-02-17T06:37:00.307Z,-2.60
2019-02-17T06:39:30.114Z,-2.50
2019-02-17T06:41:59.991Z,-2.50
2019-02-17T06:44:30.026Z,-2.50
2019-02-17T06:47:02.344Z,-2.30
2019-02-17T06:49:32.249Z,-2.30
2019-02-17T06:52:02.071Z,-2.30
2019-02-17T06:54:31.897Z,-2.20
2019-02-17T06:57:15.202Z,-2.10
2019-02-17T06:59:45.015Z,-2.10
2019-02-17T07:02:14.806Z,-2.00
2019-02-17T07:05:21.440Z,-1.90
2019-02-17T07:07:51.257Z,-1.80
2019-02-17T07:10:21.085Z,-1.80
2019-02-17T07:12:50.899Z,-1.60
2019-02-17T07:15:20.730Z,-1.20
2019-02-17T07:17:50.651Z,-0.60
2019-02-17T07:20:20.447Z,-0.10
2019-02-17T07:22:50.301Z,0.60
2019-02-17T07:25:29.816Z,1.00
2019-02-17T07:27:51.755Z,1.50
2019-02-17T07:30:21.626Z,1.90
2019-02-17T07:32:51.495Z,2.20
2019-02-17T07:35:21.322Z,2.60
2019-02-17T07:37:51.149Z,3.00
2019-02-17T07:40:20.991Z,3.30
2019-02-17T07:42:50.873Z,3.70
2019-02-17T07:45:20.786Z,4.00
2019-02-17T07:47:50.511Z,4.30
2019-02-17T07:50:20.414Z,4.50
2019-02-17T07:52:50.214Z,4.80
2019-02-17T07:55:20.118Z,5.20
2019-02-17T07:57:50.162Z,5.60
2019-02-17T08:00:20.167Z,6.00
2019-02-17T08:02:50.170Z,6.30
2019-02-17T08:05:19.972Z,6.60
2019-02-17T08:07:49.811Z,6.80
2019-02-17T08:10:19.598Z,7.00
2019-02-17T08:12:49.446Z,7.30
2019-02-17T08:15:19.229Z,7.60
2019-02-17T08:17:49.150Z,7.80
2019-02-17T08:20:19.012Z,8.00
2019-02-17T08:22:48.868Z,8.30
2019-02-17T08:25:21.724Z,8.50
2019-02-17T08:27:50.129Z,8.60
2019-02-17T08:30:19.892Z,8.80
2019-02-17T08:32:50.046Z,9.20
2019-02-17T08:35:19.940Z,9.60
2019-02-17T08:37:50.077Z,9.80
2019-02-17T08:40:19.617Z,10.10
2019-02-17T08:42:49.690Z,10.40
2019-02-17T08:45:19.575Z,10.50
2019-02-17T08:47:49.526Z,10.80
2019-02-17T08:50:20.027Z,10.90
2019-02-17T08:52:50.062Z,11.10
2019-02-17T08:55:19.967Z,11.30
2019-02-17T08:57:49.845Z,11.40
2019-02-17T09:00:19.747Z,11.20
2019-02-17T09:02:49.657Z,11.40
2019-02-17T09:05:19.536Z,11.50
2019-02-17T09:07:49.356Z,11.30
2019-02-17T09:10:19.406Z,11.00
2019-02-17T09:12:49.315Z,10.50
2019-02-17T09:15:19.292Z,10.30
2019-02-17T09:17:49.083Z,10.10
2019-02-17T09:20:19.122Z,10.00
2019-02-17T09:22:49.099Z,9.90
2019-02-17T09:25:20.091Z,9.70
2019-02-17T09:27:50.026Z,9.80
2019-02-17T09:30:19.883Z,9.70
2019-02-17T09:32:49.698Z,9.70
2019-02-17T09:35:19.515Z,9.80
2019-02-17T09:37:49.313Z,9.80
2019-02-17T09:40:19.060Z,10.10
2019-02-17T09:42:48.943Z,10.20
2019-02-17T09:45:18.751Z,10.20
2019-02-17T09:47:48.663Z,10.30
2019-02-17T09:50:19.346Z,10.40
2019-02-17T09:52:49.231Z,10.40
2019-02-17T09:55:19.027Z,10.50
2019-02-17T09:57:49.802Z,10.60
2019-02-17T10:00:21.092Z,10.70
2019-02-17T10:02:51.338Z,10.70
2019-02-17T10:05:21.202Z,10.80
2019-02-17T10:07:51.379Z,10.90
2019-02-17T10:10:21.256Z,11.00
2019-02-17T10:12:51.114Z,11.20
2019-02-17T10:15:21.023Z,11.20
2019-02-17T10:17:50.955Z,11.30
2019-02-17T10:20:20.906Z,11.50
2019-02-17T10:22:50.718Z,11.70
2019-02-17T10:25:20.498Z,12.00
2019-02-17T10:27:50.377Z,12.30
2019-02-17T10:30:20.259Z,12.50
2019-02-17T10:32:50.149Z,12.70
2019-02-17T10:35:20.066Z,12.80
2019-02-17T10:37:50.011Z,12.90
2019-02-17T10:40:19.995Z,12.80
2019-02-17T10:42:49.957Z,13.00
2019-02-17T10:45:19.757Z,13.00
2019-02-17T10:47:49.698Z,13.00
2019-02-17T10:50:19.773Z,13.00
2019-02-17T10:52:49.659Z,13.10
2019-02-17T10:55:19.461Z,13.30
2019-02-17T10:57:49.614Z,13.30
2019-02-17T11:00:19.556Z,13.30
2019-02-17T11:02:49.768Z,13.30
2019-02-17T11:05:19.845Z,13.30
2019-02-17T11:07:49.762Z,13.30
2019-02-17T11:10:19.754Z,13.30
2019-02-17T11:12:49.648Z,13.40
2019-02-17T11:15:19.837Z,13.40
2019-02-17T11:17:49.611Z,13.40
2019-02-17T11:20:19.450Z,13.70
2019-02-17T11:22:49.548Z,14.30
2019-02-17T11:25:19.484Z,14.50
2019-02-17T11:27:49.321Z,14.50
2019-02-17T11:30:19.398Z,14.40
2019-02-17T11:32:57.742Z,14.40
2019-02-17T11:35:21.539Z,14.40
2019-02-17T11:37:51.520Z,14.30
2019-02-17T11:40:21.478Z,14.30
2019-02-17T11:42:51.789Z,14.30
2019-02-17T11:45:22.025Z,14.30
2019-02-17T11:47:51.994Z,14.20
2019-02-17T11:50:22.026Z,14.20
2019-02-17T11:52:52.038Z,14.30
2019-02-17T11:55:22.828Z,14.40
2019-02-17T11:57:53.748Z,14.50
2019-02-17T12:00:23.722Z,14.60
2019-02-17T12:02:54.051Z,14.80
2019-02-17T12:05:24.007Z,15.00
2019-02-17T12:07:53.953Z,15.20
2019-02-17T12:10:23.762Z,15.40
2019-02-17T12:12:53.584Z,15.50
2019-02-17T12:15:23.452Z,15.60
2019-02-17T12:17:53.251Z,15.50
2019-02-17T12:20:48.370Z,15.60
2019-02-17T12:23:25.915Z,15.90
2019-02-17T12:26:08.866Z,16.30
2019-02-17T12:28:52.910Z,16.80
2019-02-17T12:31:26.327Z,17.20
2019-02-17T12:33:56.199Z,17.70
2019-02-17T12:36:25.914Z,18.00
2019-02-17T12:38:56.229Z,18.10
2019-02-17T12:41:26.087Z,17.60
2019-02-17T12:43:55.959Z,17.00
2019-02-17T12:46:25.911Z,16.60
2019-02-17T12:48:55.745Z,16.20
2019-02-17T12:51:25.599Z,16.00
2019-02-17T12:53:55.461Z,16.10
2019-02-17T12:56:27.236Z,16.20
2019-02-17T12:58:57.090Z,16.00
2019-02-17T13:01:27.036Z,15.90
2019-02-17T13:03:56.967Z,15.60
2019-02-17T13:06:26.798Z,15.40
2019-02-17T13:08:56.785Z,15.10
2019-02-17T13:11:26.617Z,15.10
2019-02-17T13:13:56.411Z,15.10
2019-02-17T13:16:26.270Z,15.20
2019-02-17T13:18:56.121Z,15.20
2019-02-17T13:21:25.967Z,15.20
2019-02-17T13:23:55.769Z,15.40
2019-02-17T13:26:25.797Z,15.80
2019-02-17T13:28:55.762Z,16.20
2019-02-17T13:31:25.529Z,16.40
2019-02-17T13:33:55.380Z,16.50
2019-02-17T13:36:25.262Z,16.30
2019-02-17T13:38:55.082Z,16.00
2019-02-17T13:41:25.062Z,15.70
2019-02-17T13:43:54.954Z,15.50
2019-02-17T13:46:25.057Z,15.30
2019-02-17T13:48:54.862Z,15.10
2019-02-17T13:51:24.878Z,15.00
2019-02-17T13:53:54.808Z,15.00
2019-02-17T13:56:24.660Z,15.00
2019-02-17T13:58:54.607Z,15.00
2019-02-17T14:01:24.456Z,14.90
2019-02-17T14:03:54.339Z,14.90
2019-02-17T14:06:24.195Z,14.80
2019-02-17T14:08:54.145Z,14.80
2019-02-17T14:11:23.945Z,14.80
2019-02-17T14:13:53.864Z,14.70
2019-02-17T14:16:23.776Z,14.70
2019-02-17T14:18:53.502Z,14.70
2019-02-17T14:21:23.383Z,14.70
2019-02-17T14:23:53.167Z,14.80
2019-02-17T14:26:23.054Z,14.80
2019-02-17T14:28:52.915Z,14.80
2019-02-17T14:31:22.758Z,14.80
2019-02-17T14:33:58.484Z,14.80
2019-02-17T14:36:24.467Z,14.80
2019-02-17T14:38:54.414Z,14.80
2019-02-17T14:41:24.290Z,14.80
2019-02-17T14:43:54.131Z,14.80
2019-02-17T14:46:24.123Z,14.70
2019-02-17T14:48:54.083Z,14.80
2019-02-17T14:51:23.798Z,14.90
2019-02-17T14:53:53.768Z,15.20
2019-02-17T14:56:23.621Z,15.40
2019-02-17T14:58:53.494Z,15.50
2019-02-17T15:01:23.654Z,15.60
2019-02-17T15:03:53.494Z,15.50
2019-02-17T15:06:23.435Z,15.30
2019-02-17T15:08:53.400Z,15.10
2019-02-17T15:11:23.335Z,14.80
2019-02-17T15:13:53.190Z,14.50
2019-02-17T15:16:23.104Z,14.20
2019-02-17T15:18:52.979Z,14.00
2019-02-17T15:21:22.816Z,13.80
2019-02-17T15:23:52.875Z,13.70
2019-02-17T15:26:22.842Z,13.60
2019-02-17T15:28:52.686Z,13.50
2019-02-17T15:31:22.686Z,13.40
2019-02-17T15:33:52.506Z,13.30
2019-02-17T15:36:22.747Z,13.20
2019-02-17T15:38:52.646Z,13.20
2019-02-17T15:41:22.410Z,13.10
2019-02-17T15:43:52.278Z,13.10
2019-02-17T15:46:22.646Z,13.00
2019-02-17T15:48:52.482Z,13.00
2019-02-17T15:51:24.178Z,12.80
2019-02-17T15:53:54.106Z,12.80
2019-02-17T15:56:23.942Z,12.60
2019-02-17T15:58:55.282Z,12.60
2019-02-17T16:01:26.654Z,12.50
2019-02-17T16:03:57.342Z,12.40
2019-02-17T16:06:27.590Z,12.40
2019-02-17T16:08:58.715Z,12.30
2019-02-17T16:11:30.400Z,12.20
2019-02-17T16:14:01.446Z,12.10
2019-02-17T16:16:32.092Z,12.10
2019-02-17T16:19:02.383Z,12.00
2019-02-17T16:21:34.960Z,11.90
2019-02-17T16:24:06.044Z,11.80
2019-02-17T16:26:36.450Z,11.70
2019-02-17T16:29:10.216Z,11.60
2019-02-17T16:31:40.170Z,11.30
2019-02-17T16:34:10.451Z,11.10
2019-02-17T16:36:40.637Z,10.90
2019-02-17T16:39:13.296Z,10.80
2019-02-17T16:41:43.496Z,10.50
2019-02-17T16:44:13.641Z,10.30
2019-02-17T16:46:43.862Z,10.20
2019-02-17T16:49:16.652Z,10.00
2019-02-17T16:51:47.401Z,9.90
2019-02-17T16:54:22.977Z,9.70
2019-02-17T16:56:52.819Z,9.60
2019-02-17T16:59:23.239Z,9.40
2019-02-17T17:01:53.923Z,9.20
2019-02-17T17:04:24.257Z,9.00
2019-02-17T17:07:06.253Z,8.80
2019-02-17T17:09:36.277Z,8.60
2019-02-17T17:12:07.034Z,8.40
2019-02-17T17:14:37.276Z,8.30
2019-02-17T17:17:07.466Z,8.10
2019-02-17T17:19:38.191Z,8.00
2019-02-17T17:22:08.329Z,7.80
2019-02-17T17:24:38.690Z,7.60
2019-02-17T17:27:08.698Z,7.40
2019-02-17T17:29:38.898Z,7.30
2019-02-17T17:32:08.919Z,7.20
2019-02-17T17:34:39.255Z,7.00
2019-02-17T17:37:09.293Z,6.90
2019-02-17T17:39:39.286Z,6.80
2019-02-17T17:42:09.446Z,6.70
2019-02-17T17:44:39.527Z,6.50
2019-02-17T17:47:11.349Z,6.40
2019-02-17T17:49:41.498Z,6.30
2019-02-17T17:52:12.128Z,6.20
2019-02-17T17:54:42.364Z,6.10
2019-02-17T17:57:12.626Z,6.00
2019-02-17T17:59:43.638Z,5.90
2019-02-17T18:02:14.002Z,5.70
2019-02-17T18:04:44.364Z,5.60
2019-02-17T18:07:14.512Z,5.50
2019-02-17T18:09:44.611Z,5.40
2019-02-17T18:12:14.782Z,5.30
2019-02-17T18:14:45.030Z,5.20
2019-02-17T18:17:15.578Z,5.10
2019-02-17T18:19:45.858Z,5.00
2019-02-17T18:22:16.374Z,4.90
2019-02-17T18:24:47.145Z,4.80
2019-02-17T18:27:17.459Z,4.70
2019-02-17T18:29:50.713Z,4.60
2019-02-17T18:32:23.462Z,4.60
2019-02-17T18:34:53.761Z,4.50
2019-02-17T18:37:25.256Z,4.40
2019-02-17T18:39:55.949Z,4.40
2019-02-17T18:42:26.627Z,4.40
2019-02-17T18:45:04.365Z,4.30
2019-02-17T18:47:35.002Z,4.20
2019-02-17T18:50:05.396Z,4.10
2019-02-17T18:52:35.255Z,4.00
2019-02-17T18:55:05.453Z,4.00
2019-02-17T18:57:35.507Z,3.90
2019-02-17T19:00:06.434Z,3.80
2019-02-17T19:02:36.661Z,3.70
2019-02-17T19:05:07.503Z,3.70
2019-02-17T19:07:39.109Z,3.70
2019-02-17T19:10:10.722Z,3.60
2019-02-17T19:12:41.483Z,3.60
2019-02-17T19:15:13.250Z,3.50
2019-02-17T19:17:45.962Z,3.50
2019-02-17T19:20:18.011Z,3.40
2019-02-17T19:22:48.359Z,3.40
2019-02-17T19:25:18.975Z,3.40
2019-02-17T19:27:52.917Z,3.40
2019-02-17T19:30:24.691Z,3.40
2019-02-17T19:32:55.646Z,3.30
2019-02-17T19:35:27.191Z,3.20
2019-02-17T19:37:57.553Z,3.10
2019-02-17T19:40:27.870Z,3.00
2019-02-17T19:43:00.251Z,3.00
2019-02-17T19:45:30.842Z,2.90
2019-02-17T19:48:01.801Z,2.80
2019-02-17T19:50:32.036Z,2.80
2019-02-17T19:53:05.166Z,2.80
2019-02-17T19:55:36.000Z,2.80
2019-02-17T19:58:08.457Z,2.70
2019-02-17T20:00:38.817Z,2.70
2019-02-17T20:03:28.193Z,2.60
2019-02-17T20:06:01.182Z,2.60
2019-02-17T20:08:31.500Z,2.50
2019-02-17T20:11:01.745Z,2.50
2019-02-17T20:13:32.553Z,2.40
2019-02-17T20:16:02.658Z,2.40
2019-02-17T20:18:32.750Z,2.40
2019-02-17T20:21:03.305Z,2.30
2019-02-17T20:23:33.495Z,2.30
2019-02-17T20:26:06.851Z,2.20
2019-02-17T20:28:43.295Z,2.20
2019-02-17T20:31:08.793Z,2.20
2019-02-17T20:33:39.616Z,2.10
2019-02-17T20:36:09.790Z,2.00
2019-02-17T20:38:40.121Z,2.00
2019-02-17T20:41:10.243Z,1.90
2019-02-17T20:43:40.532Z,1.90
2019-02-17T20:46:10.777Z,1.80
2019-02-17T20:48:42.114Z,1.80
2019-02-17T20:51:12.411Z,1.70
2019-02-17T20:53:42.529Z,1.70
2019-02-17T20:56:12.505Z,1.60
2019-02-17T20:58:44.989Z,1.60
2019-02-17T21:01:15.158Z,1.60
2019-02-17T21:03:45.350Z,1.50
2019-02-17T21:06:15.893Z,1.50
2019-02-17T21:08:47.662Z,1.50
2019-02-17T21:11:18.302Z,1.40
2019-02-17T21:13:48.651Z,1.30
2019-02-17T21:16:18.888Z,1.40
2019-02-17T21:18:49.231Z,1.30
2019-02-17T21:21:19.271Z,1.30
2019-02-17T21:23:49.115Z,1.20
2019-02-17T21:26:18.950Z,1.20
2019-02-17T21:28:49.859Z,1.20
2019-02-17T21:31:19.990Z,1.20
2019-02-17T21:33:49.957Z,1.20
2019-02-17T21:36:23.112Z,1.20
2019-02-17T21:38:55.387Z,1.20
2019-02-17T21:41:26.379Z,1.20
2019-02-17T21:43:57.175Z,1.20
2019-02-17T21:46:28.297Z,1.20
2019-02-17T21:48:59.238Z,1.20
2019-02-17T21:51:34.129Z,1.20
2019-02-17T21:54:08.427Z,1.20
2019-02-17T21:56:41.843Z,1.20
2019-02-17T21:59:18.199Z,1.20
2019-02-17T22:01:44.472Z,1.20
2019-02-17T22:04:16.570Z,1.10
2019-02-17T22:06:51.078Z,1.10
2019-02-17T22:09:24.970Z,1.10
2019-02-17T22:11:55.910Z,1.00
2019-02-17T22:14:30.902Z,1.00
2019-02-17T22:17:01.613Z,0.90
2019-02-17T22:19:35.536Z,0.90
2019-02-17T22:22:04.232Z,0.90
2019-02-17T22:24:38.209Z,0.90
2019-02-17T22:27:29.033Z,0.90
2019-02-17T22:29:59.726Z,0.90
2019-02-17T22:32:31.509Z,0.80
2019-02-17T22:35:02.274Z,0.80
2019-02-17T22:37:35.392Z,0.80
2019-02-17T22:40:06.326Z,0.80
2019-02-17T22:42:37.559Z,0.70
2019-02-17T22:45:14.526Z,0.60
2019-02-17T22:47:49.203Z,0.60
2019-02-17T22:50:19.112Z,0.50
2019-02-17T22:52:49.110Z,0.40
2019-02-17T22:55:18.991Z,0.30
2019-02-17T22:57:48.784Z,0.20
2019-02-17T23:00:37.550Z,0.20
2019-02-17T23:03:07.652Z,0.20
2019-02-17T23:05:37.820Z,0.10
2019-02-17T23:08:07.701Z,0.00
2019-02-17T23:10:37.497Z,-0.10
2019-02-17T23:13:07.617Z,-0.20
2019-02-17T23:15:37.491Z,-0.20
2019-02-17T23:18:07.332Z,-0.30
2019-02-17T23:20:37.139Z,-0.30
2019-02-17T23:23:06.993Z,-0.40
2019-02-17T23:25:36.884Z,-0.40
2019-02-17T23:28:08.092Z,-0.50
2019-02-17T23:30:37.921Z,-0.50
2019-02-17T23:33:07.806Z,-0.50
2019-02-17T23:35:37.799Z,-0.60
2019-02-17T23:38:09.156Z,-0.60
2019-02-17T23:40:38.901Z,-0.60
2019-02-17T23:43:08.726Z,-0.70
2019-02-17T23:45:38.526Z,-0.70
2019-02-17T23:48:11.417Z,-0.70
2019-02-17T23:50:41.317Z,-0.80
2019-02-17T23:53:11.027Z,-0.80
2019-02-17T23:55:40.866Z,-0.80
2019-02-17T23:58:11.211Z,-0.80
